sensor_id;sensor_type;location;lat;lon;timestamp;temperature;humidity
39315;DHT22;28703;44.412;11.918;2023-07-24T00:01:23;27.70;99.90
39315;DHT22;28703;44.412;11.918;2023-07-24T00:03:48;27.70;99.90
39315;DHT22;28703;44.412;11.918;2023-07-24T00:06:14;27.70;99.90
39315;DHT22;28703;44.412;11.918;2023-07-24T00:08:40;27.70;99.90
39315;DHT22;28703;44.412;11.918;2023-07-24T00:11:09;27.60;99.70
39315;DHT22;28703;44.412;11.918;2023-07-24T00:13:35;27.60;99.20
39315;DHT22;28703;44.412;11.918;2023-07-24T00:16:06;27.50;98.80
39315;DHT22;28703;44.412;11.918;2023-07-24T00:18:32;27.50;98.40
39315;DHT22;28703;44.412;11.918;2023-07-24T00:20:58;27.50;98.10
39315;DHT22;28703;44.412;11.918;2023-07-24T00:23:24;27.40;97.80
39315;DHT22;28703;44.412;11.918;2023-07-24T00:25:50;27.40;97.70
39315;DHT22;28703;44.412;11.918;2023-07-24T00:28:15;27.30;97.50
39315;DHT22;28703;44.412;11.918;2023-07-24T00:30:42;27.30;97.40
39315;DHT22;28703;44.412;11.918;2023-07-24T00:33:08;27.30;97.40
39315;DHT22;28703;44.412;11.918;2023-07-24T00:35:35;27.20;97.30
39315;DHT22;28703;44.412;11.918;2023-07-24T00:38:01;27.20;97.30
39315;DHT22;28703;44.412;11.918;2023-07-24T00:40:27;27.20;97.30
39315;DHT22;28703;44.412;11.918;2023-07-24T00:42:53;27.10;97.30
39315;DHT22;28703;44.412;11.918;2023-07-24T00:45:20;27.10;97.30
39315;DHT22;28703;44.412;11.918;2023-07-24T00:47:47;27.10;97.30
39315;DHT22;28703;44.412;11.918;2023-07-24T00:50:13;27.00;97.30
39315;DHT22;28703;44.412;11.918;2023-07-24T00:52:40;27.00;97.30
39315;DHT22;28703;44.412;11.918;2023-07-24T00:55:06;26.90;97.20
39315;DHT22;28703;44.412;11.918;2023-07-24T00:57:33;27.00;97.10
39315;DHT22;28703;44.412;11.918;2023-07-24T00:59:59;26.90;97.00
39315;DHT22;28703;44.412;11.918;2023-07-24T01:02:25;26.90;96.70
39315;DHT22;28703;44.412;11.918;2023-07-24T01:04:51;26.90;96.40
39315;DHT22;28703;44.412;11.918;2023-07-24T01:07:17;26.90;96.30
39315;DHT22;28703;44.412;11.918;2023-07-24T01:09:43;26.80;96.30
39315;DHT22;28703;44.412;11.918;2023-07-24T01:12:22;26.80;96.30
39315;DHT22;28703;44.412;11.918;2023-07-24T01:15:09;26.70;96.10
39315;DHT22;28703;44.412;11.918;2023-07-24T01:17:44;26.70;96.00
39315;DHT22;28703;44.412;11.918;2023-07-24T01:20:12;26.60;96.00
39315;DHT22;28703;44.412;11.918;2023-07-24T01:22:57;26.60;95.80
39315;DHT22;28703;44.412;11.918;2023-07-24T01:25:32;26.60;95.60
39315;DHT22;28703;44.412;11.918;2023-07-24T01:28:01;26.50;95.30
39315;DHT22;28703;44.412;11.918;2023-07-24T01:30:27;26.40;95.20
39315;DHT22;28703;44.412;11.918;2023-07-24T01:32:53;26.40;95.10
39315;DHT22;28703;44.412;11.918;2023-07-24T01:35:18;26.40;94.80
39315;DHT22;28703;44.412;11.918;2023-07-24T01:37:46;26.30;94.40
39315;DHT22;28703;44.412;11.918;2023-07-24T01:40:12;26.30;94.30
39315;DHT22;28703;44.412;11.918;2023-07-24T01:42:38;26.20;94.10
39315;DHT22;28703;44.412;11.918;2023-07-24T01:45:04;26.20;93.90
39315;DHT22;28703;44.412;11.918;2023-07-24T01:47:32;26.20;93.80
39315;DHT22;28703;44.412;11.918;2023-07-24T01:49:58;26.10;93.70
39315;DHT22;28703;44.412;11.918;2023-07-24T01:52:25;26.00;93.60
39315;DHT22;28703;44.412;11.918;2023-07-24T01:54:51;26.00;93.50
39315;DHT22;28703;44.412;11.918;2023-07-24T01:57:17;26.00;93.60
39315;DHT22;28703;44.412;11.918;2023-07-24T01:59:43;26.00;93.60
39315;DHT22;28703;44.412;11.918;2023-07-24T02:02:10;26.00;93.70
39315;DHT22;28703;44.412;11.918;2023-07-24T02:04:36;26.00;93.80
39315;DHT22;28703;44.412;11.918;2023-07-24T02:07:03;25.90;93.80
39315;DHT22;28703;44.412;11.918;2023-07-24T02:09:29;25.90;93.90
39315;DHT22;28703;44.412;11.918;2023-07-24T02:11:55;25.90;94.00
39315;DHT22;28703;44.412;11.918;2023-07-24T02:14:21;25.90;94.10
39315;DHT22;28703;44.412;11.918;2023-07-24T02:16:46;25.80;94.10
39315;DHT22;28703;44.412;11.918;2023-07-24T02:19:12;25.80;94.20
39315;DHT22;28703;44.412;11.918;2023-07-24T02:21:38;25.80;94.20
39315;DHT22;28703;44.412;11.918;2023-07-24T02:24:06;25.70;94.10
39315;DHT22;28703;44.412;11.918;2023-07-24T02:26:32;25.70;94.00
39315;DHT22;28703;44.412;11.918;2023-07-24T02:28:57;25.60;94.00
39315;DHT22;28703;44.412;11.918;2023-07-24T02:31:23;25.50;94.00
39315;DHT22;28703;44.412;11.918;2023-07-24T02:33:49;25.50;94.00
39315;DHT22;28703;44.412;11.918;2023-07-24T02:36:15;25.50;94.00
39315;DHT22;28703;44.412;11.918;2023-07-24T02:38:41;25.50;94.00
39315;DHT22;28703;44.412;11.918;2023-07-24T02:41:06;25.40;94.00
39315;DHT22;28703;44.412;11.918;2023-07-24T02:43:32;25.40;93.90
39315;DHT22;28703;44.412;11.918;2023-07-24T02:46:03;25.30;93.90
39315;DHT22;28703;44.412;11.918;2023-07-24T02:48:29;25.30;93.80
39315;DHT22;28703;44.412;11.918;2023-07-24T02:50:55;25.30;93.70
39315;DHT22;28703;44.412;11.918;2023-07-24T02:53:21;25.30;93.70
39315;DHT22;28703;44.412;11.918;2023-07-24T02:55:47;25.30;93.60
39315;DHT22;28703;44.412;11.918;2023-07-24T02:58:13;25.30;93.50
39315;DHT22;28703;44.412;11.918;2023-07-24T03:00:40;25.30;93.40
39315;DHT22;28703;44.412;11.918;2023-07-24T03:03:06;25.30;93.50
39315;DHT22;28703;44.412;11.918;2023-07-24T03:05:34;25.30;93.50
39315;DHT22;28703;44.412;11.918;2023-07-24T03:08:00;25.20;93.50
39315;DHT22;28703;44.412;11.918;2023-07-24T03:10:25;25.30;93.50
39315;DHT22;28703;44.412;11.918;2023-07-24T03:12:52;25.20;93.50
39315;DHT22;28703;44.412;11.918;2023-07-24T03:15:19;25.20;93.50
39315;DHT22;28703;44.412;11.918;2023-07-24T03:17:44;25.20;93.30
39315;DHT22;28703;44.412;11.918;2023-07-24T03:20:18;25.20;93.10
39315;DHT22;28703;44.412;11.918;2023-07-24T03:22:45;25.20;93.10
39315;DHT22;28703;44.412;11.918;2023-07-24T03:25:14;25.10;93.10
39315;DHT22;28703;44.412;11.918;2023-07-24T03:27:40;25.10;92.90
39315;DHT22;28703;44.412;11.918;2023-07-24T03:30:06;25.10;92.80
39315;DHT22;28703;44.412;11.918;2023-07-24T03:32:36;25.10;92.70
39315;DHT22;28703;44.412;11.918;2023-07-24T03:35:10;25.20;92.70
39315;DHT22;28703;44.412;11.918;2023-07-24T03:37:43;25.20;92.80
39315;DHT22;28703;44.412;11.918;2023-07-24T03:40:11;25.20;92.70
39315;DHT22;28703;44.412;11.918;2023-07-24T03:42:37;25.20;92.70
39315;DHT22;28703;44.412;11.918;2023-07-24T03:45:10;25.20;92.70
39315;DHT22;28703;44.412;11.918;2023-07-24T03:47:36;25.20;92.50
39315;DHT22;28703;44.412;11.918;2023-07-24T03:50:02;25.20;92.50
39315;DHT22;28703;44.412;11.918;2023-07-24T03:52:30;25.20;92.50
39315;DHT22;28703;44.412;11.918;2023-07-24T03:55:00;25.20;92.50
39315;DHT22;28703;44.412;11.918;2023-07-24T03:57:26;25.20;92.60
39315;DHT22;28703;44.412;11.918;2023-07-24T04:00:01;25.20;92.60
39315;DHT22;28703;44.412;11.918;2023-07-24T04:02:44;25.20;92.60
39315;DHT22;28703;44.412;11.918;2023-07-24T04:05:10;25.10;92.60
39315;DHT22;28703;44.412;11.918;2023-07-24T04:07:36;25.10;92.60
39315;DHT22;28703;44.412;11.918;2023-07-24T04:10:08;25.20;92.60
39315;DHT22;28703;44.412;11.918;2023-07-24T04:12:35;25.20;92.80
39315;DHT22;28703;44.412;11.918;2023-07-24T04:15:07;25.20;92.90
39315;DHT22;28703;44.412;11.918;2023-07-24T04:17:43;25.20;93.10
39315;DHT22;28703;44.412;11.918;2023-07-24T04:20:19;25.20;93.50
39315;DHT22;28703;44.412;11.918;2023-07-24T04:22:46;25.20;93.60
39315;DHT22;28703;44.412;11.918;2023-07-24T04:25:20;25.20;93.70
39315;DHT22;28703;44.412;11.918;2023-07-24T04:27:49;25.20;93.80
39315;DHT22;28703;44.412;11.918;2023-07-24T04:30:18;25.20;93.80
39315;DHT22;28703;44.412;11.918;2023-07-24T04:32:44;25.20;93.80
39315;DHT22;28703;44.412;11.918;2023-07-24T04:35:09;25.20;93.80
39315;DHT22;28703;44.412;11.918;2023-07-24T04:37:35;25.20;93.90
39315;DHT22;28703;44.412;11.918;2023-07-24T04:40:01;25.20;93.80
39315;DHT22;28703;44.412;11.918;2023-07-24T04:42:27;25.20;93.90
39315;DHT22;28703;44.412;11.918;2023-07-24T04:44:53;25.20;93.90
39315;DHT22;28703;44.412;11.918;2023-07-24T04:47:19;25.30;93.70
39315;DHT22;28703;44.412;11.918;2023-07-24T04:49:44;25.30;93.60
39315;DHT22;28703;44.412;11.918;2023-07-24T04:52:10;25.30;93.50
39315;DHT22;28703;44.412;11.918;2023-07-24T04:54:36;25.40;93.50
39315;DHT22;28703;44.412;11.918;2023-07-24T04:57:02;25.40;93.60
39315;DHT22;28703;44.412;11.918;2023-07-24T04:59:28;25.50;93.60
39315;DHT22;28703;44.412;11.918;2023-07-24T05:01:54;25.50;93.50
39315;DHT22;28703;44.412;11.918;2023-07-24T05:04:20;25.50;93.50
39315;DHT22;28703;44.412;11.918;2023-07-24T05:06:46;25.50;93.40
39315;DHT22;28703;44.412;11.918;2023-07-24T05:09:11;25.50;93.30
39315;DHT22;28703;44.412;11.918;2023-07-24T05:11:37;25.50;93.30
39315;DHT22;28703;44.412;11.918;2023-07-24T05:14:03;25.50;93.20
39315;DHT22;28703;44.412;11.918;2023-07-24T05:16:29;25.60;93.20
39315;DHT22;28703;44.412;11.918;2023-07-24T05:18:56;25.50;93.00
39315;DHT22;28703;44.412;11.918;2023-07-24T05:21:22;25.50;92.70
39315;DHT22;28703;44.412;11.918;2023-07-24T05:23:48;25.30;92.80
39315;DHT22;28703;44.412;11.918;2023-07-24T05:26:14;25.20;93.20
39315;DHT22;28703;44.412;11.918;2023-07-24T05:28:40;25.00;93.30
39315;DHT22;28703;44.412;11.918;2023-07-24T05:31:06;25.00;92.80
39315;DHT22;28703;44.412;11.918;2023-07-24T05:33:33;25.00;92.90
39315;DHT22;28703;44.412;11.918;2023-07-24T05:36:00;25.10;92.70
39315;DHT22;28703;44.412;11.918;2023-07-24T05:38:26;25.10;92.50
39315;DHT22;28703;44.412;11.918;2023-07-24T05:40:59;25.20;92.10
39315;DHT22;28703;44.412;11.918;2023-07-24T05:43:26;25.20;91.80
39315;DHT22;28703;44.412;11.918;2023-07-24T05:45:53;25.20;91.80
39315;DHT22;28703;44.412;11.918;2023-07-24T05:48:20;25.10;91.90
39315;DHT22;28703;44.412;11.918;2023-07-24T05:50:46;25.10;92.10
39315;DHT22;28703;44.412;11.918;2023-07-24T05:53:13;25.10;92.40
39315;DHT22;28703;44.412;11.918;2023-07-24T05:55:39;25.10;92.50
39315;DHT22;28703;44.412;11.918;2023-07-24T05:58:05;25.10;92.60
39315;DHT22;28703;44.412;11.918;2023-07-24T06:00:31;25.10;92.60
39315;DHT22;28703;44.412;11.918;2023-07-24T06:02:57;25.20;92.70
39315;DHT22;28703;44.412;11.918;2023-07-24T06:05:23;25.20;92.80
39315;DHT22;28703;44.412;11.918;2023-07-24T06:07:49;25.20;92.90
39315;DHT22;28703;44.412;11.918;2023-07-24T06:10:15;25.20;93.00
39315;DHT22;28703;44.412;11.918;2023-07-24T06:12:41;25.20;93.20
39315;DHT22;28703;44.412;11.918;2023-07-24T06:15:07;25.20;93.30
39315;DHT22;28703;44.412;11.918;2023-07-24T06:17:33;25.20;93.20
39315;DHT22;28703;44.412;11.918;2023-07-24T06:19:58;25.20;93.00
39315;DHT22;28703;44.412;11.918;2023-07-24T06:22:24;25.30;93.10
39315;DHT22;28703;44.412;11.918;2023-07-24T06:24:50;25.40;92.90
39315;DHT22;28703;44.412;11.918;2023-07-24T06:27:16;25.50;92.70
39315;DHT22;28703;44.412;11.918;2023-07-24T06:29:42;25.50;92.50
39315;DHT22;28703;44.412;11.918;2023-07-24T06:32:08;25.50;92.00
39315;DHT22;28703;44.412;11.918;2023-07-24T06:34:34;25.50;92.10
39315;DHT22;28703;44.412;11.918;2023-07-24T06:37:00;25.50;92.20
39315;DHT22;28703;44.412;11.918;2023-07-24T06:39:26;25.50;92.10
39315;DHT22;28703;44.412;11.918;2023-07-24T06:41:54;25.50;92.10
39315;DHT22;28703;44.412;11.918;2023-07-24T06:44:21;25.50;92.10
39315;DHT22;28703;44.412;11.918;2023-07-24T06:46:47;25.50;92.30
39315;DHT22;28703;44.412;11.918;2023-07-24T06:49:13;25.60;92.10
39315;DHT22;28703;44.412;11.918;2023-07-24T06:51:39;25.60;92.20
39315;DHT22;28703;44.412;11.918;2023-07-24T06:54:05;25.60;92.10
39315;DHT22;28703;44.412;11.918;2023-07-24T06:56:31;25.70;92.20
39315;DHT22;28703;44.412;11.918;2023-07-24T06:58:57;25.70;92.30
39315;DHT22;28703;44.412;11.918;2023-07-24T07:01:23;25.70;92.30
39315;DHT22;28703;44.412;11.918;2023-07-24T07:03:49;25.80;92.30
39315;DHT22;28703;44.412;11.918;2023-07-24T07:06:15;25.80;92.40
39315;DHT22;28703;44.412;11.918;2023-07-24T07:08:42;25.90;92.50
39315;DHT22;28703;44.412;11.918;2023-07-24T07:11:08;25.90;92.50
39315;DHT22;28703;44.412;11.918;2023-07-24T07:13:34;26.00;92.50
39315;DHT22;28703;44.412;11.918;2023-07-24T07:16:00;26.00;92.50
39315;DHT22;28703;44.412;11.918;2023-07-24T07:18:26;26.00;92.60
39315;DHT22;28703;44.412;11.918;2023-07-24T07:20:53;26.00;92.70
39315;DHT22;28703;44.412;11.918;2023-07-24T07:23:20;26.10;92.70
39315;DHT22;28703;44.412;11.918;2023-07-24T07:25:46;26.10;92.70
39315;DHT22;28703;44.412;11.918;2023-07-24T07:28:15;26.20;92.80
39315;DHT22;28703;44.412;11.918;2023-07-24T07:30:42;26.30;92.90
39315;DHT22;28703;44.412;11.918;2023-07-24T07:33:08;26.30;92.80
39315;DHT22;28703;44.412;11.918;2023-07-24T07:35:35;26.30;92.40
39315;DHT22;28703;44.412;11.918;2023-07-24T07:38:02;26.30;92.40
39315;DHT22;28703;44.412;11.918;2023-07-24T07:40:29;26.40;92.60
39315;DHT22;28703;44.412;11.918;2023-07-24T07:42:55;26.40;92.60
39315;DHT22;28703;44.412;11.918;2023-07-24T07:45:22;26.40;92.90
39315;DHT22;28703;44.412;11.918;2023-07-24T07:47:48;26.50;93.10
39315;DHT22;28703;44.412;11.918;2023-07-24T07:50:15;26.60;93.60
39315;DHT22;28703;44.412;11.918;2023-07-24T07:52:40;26.60;93.80
39315;DHT22;28703;44.412;11.918;2023-07-24T07:55:07;26.70;93.70
39315;DHT22;28703;44.412;11.918;2023-07-24T07:57:37;26.70;93.70
39315;DHT22;28703;44.412;11.918;2023-07-24T08:00:04;26.80;93.70
39315;DHT22;28703;44.412;11.918;2023-07-24T08:02:31;26.80;93.50
39315;DHT22;28703;44.412;11.918;2023-07-24T08:04:58;26.90;93.40
39315;DHT22;28703;44.412;11.918;2023-07-24T08:07:24;27.00;93.40
39315;DHT22;28703;44.412;11.918;2023-07-24T08:09:50;27.00;93.40
39315;DHT22;28703;44.412;11.918;2023-07-24T08:12:16;27.00;93.40
39315;DHT22;28703;44.412;11.918;2023-07-24T08:14:42;27.10;93.40
39315;DHT22;28703;44.412;11.918;2023-07-24T08:17:07;27.20;93.40
39315;DHT22;28703;44.412;11.918;2023-07-24T08:19:33;27.20;93.50
39315;DHT22;28703;44.412;11.918;2023-07-24T08:21:59;27.30;93.60
39315;DHT22;28703;44.412;11.918;2023-07-24T08:24:25;27.40;93.50
39315;DHT22;28703;44.412;11.918;2023-07-24T08:26:51;27.40;93.40
39315;DHT22;28703;44.412;11.918;2023-07-24T08:29:17;27.40;93.30
39315;DHT22;28703;44.412;11.918;2023-07-24T08:31:43;27.50;93.20
39315;DHT22;28703;44.412;11.918;2023-07-24T08:34:09;27.50;93.10
39315;DHT22;28703;44.412;11.918;2023-07-24T08:36:35;27.50;93.00
39315;DHT22;28703;44.412;11.918;2023-07-24T08:39:03;27.50;92.90
39315;DHT22;28703;44.412;11.918;2023-07-24T08:41:29;27.60;93.00
39315;DHT22;28703;44.412;11.918;2023-07-24T08:43:56;27.60;93.20
39315;DHT22;28703;44.412;11.918;2023-07-24T08:46:22;27.70;93.60
39315;DHT22;28703;44.412;11.918;2023-07-24T08:48:48;27.60;93.60
39315;DHT22;28703;44.412;11.918;2023-07-24T08:51:15;27.50;93.20
39315;DHT22;28703;44.412;11.918;2023-07-24T08:53:50;27.50;92.60
39315;DHT22;28703;44.412;11.918;2023-07-24T08:56:18;27.60;92.00
39315;DHT22;28703;44.412;11.918;2023-07-24T08:58:45;27.60;91.50
39315;DHT22;28703;44.412;11.918;2023-07-24T09:01:11;27.70;91.10
39315;DHT22;28703;44.412;11.918;2023-07-24T09:03:37;27.80;91.10
39315;DHT22;28703;44.412;11.918;2023-07-24T09:06:04;27.80;91.00
39315;DHT22;28703;44.412;11.918;2023-07-24T09:08:37;27.90;90.70
39315;DHT22;28703;44.412;11.918;2023-07-24T09:11:04;28.00;90.60
39315;DHT22;28703;44.412;11.918;2023-07-24T09:13:31;28.00;90.60
39315;DHT22;28703;44.412;11.918;2023-07-24T09:15:57;28.10;90.80
39315;DHT22;28703;44.412;11.918;2023-07-24T09:18:25;28.20;90.90
39315;DHT22;28703;44.412;11.918;2023-07-24T09:20:51;28.20;90.80
39315;DHT22;28703;44.412;11.918;2023-07-24T09:23:26;28.30;90.60
39315;DHT22;28703;44.412;11.918;2023-07-24T09:25:55;28.40;90.20
39315;DHT22;28703;44.412;11.918;2023-07-24T09:28:22;28.40;90.10
39315;DHT22;28703;44.412;11.918;2023-07-24T09:30:58;28.50;89.90
39315;DHT22;28703;44.412;11.918;2023-07-24T09:33:37;28.60;90.10
39315;DHT22;28703;44.412;11.918;2023-07-24T09:36:04;28.70;90.30
39315;DHT22;28703;44.412;11.918;2023-07-24T09:38:30;28.70;90.30
39315;DHT22;28703;44.412;11.918;2023-07-24T09:40:57;28.80;90.20
39315;DHT22;28703;44.412;11.918;2023-07-24T09:43:25;28.90;90.50
39315;DHT22;28703;44.412;11.918;2023-07-24T09:45:52;28.90;90.70
39315;DHT22;28703;44.412;11.918;2023-07-24T09:48:19;28.90;90.90
39315;DHT22;28703;44.412;11.918;2023-07-24T09:50:54;28.90;91.20
39315;DHT22;28703;44.412;11.918;2023-07-24T09:53:46;29.00;91.40
39315;DHT22;28703;44.412;11.918;2023-07-24T09:56:14;29.00;91.50
39315;DHT22;28703;44.412;11.918;2023-07-24T09:58:44;29.00;91.70
39315;DHT22;28703;44.412;11.918;2023-07-24T10:01:11;29.00;91.80
39315;DHT22;28703;44.412;11.918;2023-07-24T10:03:45;29.10;91.90
39315;DHT22;28703;44.412;11.918;2023-07-24T10:06:11;29.10;91.80
39315;DHT22;28703;44.412;11.918;2023-07-24T10:08:40;29.10;91.70
39315;DHT22;28703;44.412;11.918;2023-07-24T10:11:08;29.20;91.80
39315;DHT22;28703;44.412;11.918;2023-07-24T10:13:35;29.20;92.00
39315;DHT22;28703;44.412;11.918;2023-07-24T10:16:02;29.30;92.10
39315;DHT22;28703;44.412;11.918;2023-07-24T10:18:30;29.30;92.10
39315;DHT22;28703;44.412;11.918;2023-07-24T10:21:07;29.30;91.90
39315;DHT22;28703;44.412;11.918;2023-07-24T10:23:37;29.30;91.60
39315;DHT22;28703;44.412;11.918;2023-07-24T10:26:07;29.30;91.50
39315;DHT22;28703;44.412;11.918;2023-07-24T10:28:38;29.30;91.50
39315;DHT22;28703;44.412;11.918;2023-07-24T10:31:06;29.30;91.60
39315;DHT22;28703;44.412;11.918;2023-07-24T10:33:35;29.30;91.60
39315;DHT22;28703;44.412;11.918;2023-07-24T10:36:05;29.30;91.50
39315;DHT22;28703;44.412;11.918;2023-07-24T10:38:39;29.30;91.60
39315;DHT22;28703;44.412;11.918;2023-07-24T10:41:08;29.30;91.70
39315;DHT22;28703;44.412;11.918;2023-07-24T10:43:51;29.30;91.80
39315;DHT22;28703;44.412;11.918;2023-07-24T10:46:19;29.40;91.90
39315;DHT22;28703;44.412;11.918;2023-07-24T10:48:47;29.40;92.10
39315;DHT22;28703;44.412;11.918;2023-07-24T10:51:13;29.40;92.10
39315;DHT22;28703;44.412;11.918;2023-07-24T10:53:49;29.50;92.10
39315;DHT22;28703;44.412;11.918;2023-07-24T10:56:16;29.60;92.00
39315;DHT22;28703;44.412;11.918;2023-07-24T10:58:42;29.70;92.10
39315;DHT22;28703;44.412;11.918;2023-07-24T11:01:09;29.70;91.70
39315;DHT22;28703;44.412;11.918;2023-07-24T11:03:41;29.80;91.40
39315;DHT22;28703;44.412;11.918;2023-07-24T11:06:18;29.90;91.20
39315;DHT22;28703;44.412;11.918;2023-07-24T11:08:51;30.00;90.70
39315;DHT22;28703;44.412;11.918;2023-07-24T11:11:18;30.00;90.50
39315;DHT22;28703;44.412;11.918;2023-07-24T11:13:43;30.10;90.70
39315;DHT22;28703;44.412;11.918;2023-07-24T11:16:09;30.20;90.60
39315;DHT22;28703;44.412;11.918;2023-07-24T11:18:49;30.20;90.10
39315;DHT22;28703;44.412;11.918;2023-07-24T11:21:15;30.30;88.30
39315;DHT22;28703;44.412;11.918;2023-07-24T11:23:49;30.20;88.90
39315;DHT22;28703;44.412;11.918;2023-07-24T11:26:18;30.30;88.60
39315;DHT22;28703;44.412;11.918;2023-07-24T11:28:44;30.40;88.30
39315;DHT22;28703;44.412;11.918;2023-07-24T11:31:10;30.40;87.80
39315;DHT22;28703;44.412;11.918;2023-07-24T11:33:37;30.50;87.80
39315;DHT22;28703;44.412;11.918;2023-07-24T11:36:03;30.60;87.90
39315;DHT22;28703;44.412;11.918;2023-07-24T11:38:30;30.70;88.00
39315;DHT22;28703;44.412;11.918;2023-07-24T11:40:56;30.70;88.00
39315;DHT22;28703;44.412;11.918;2023-07-24T11:43:24;30.70;87.90
39315;DHT22;28703;44.412;11.918;2023-07-24T11:45:53;30.80;87.60
39315;DHT22;28703;44.412;11.918;2023-07-24T11:48:24;30.80;87.20
39315;DHT22;28703;44.412;11.918;2023-07-24T11:50:55;30.80;86.50
39315;DHT22;28703;44.412;11.918;2023-07-24T11:53:25;30.80;87.30
39315;DHT22;28703;44.412;11.918;2023-07-24T11:55:52;30.80;87.00
39315;DHT22;28703;44.412;11.918;2023-07-24T11:58:21;30.80;87.40
39315;DHT22;28703;44.412;11.918;2023-07-24T12:00:48;30.90;87.20
39315;DHT22;28703;44.412;11.918;2023-07-24T12:03:19;31.00;87.30
39315;DHT22;28703;44.412;11.918;2023-07-24T12:05:48;31.10;87.00
39315;DHT22;28703;44.412;11.918;2023-07-24T12:08:14;31.20;87.00
39315;DHT22;28703;44.412;11.918;2023-07-24T12:10:41;31.30;87.10
39315;DHT22;28703;44.412;11.918;2023-07-24T12:13:07;31.40;87.00
39315;DHT22;28703;44.412;11.918;2023-07-24T12:15:33;31.50;86.70
39315;DHT22;28703;44.412;11.918;2023-07-24T12:18:01;31.50;86.50
39315;DHT22;28703;44.412;11.918;2023-07-24T12:20:28;31.60;86.40
39315;DHT22;28703;44.412;11.918;2023-07-24T12:22:54;31.60;86.30
39315;DHT22;28703;44.412;11.918;2023-07-24T12:25:20;31.60;86.40
39315;DHT22;28703;44.412;11.918;2023-07-24T12:27:47;31.60;87.00
39315;DHT22;28703;44.412;11.918;2023-07-24T12:30:13;31.60;87.60
39315;DHT22;28703;44.412;11.918;2023-07-24T12:32:40;31.60;87.80
39315;DHT22;28703;44.412;11.918;2023-07-24T12:35:07;31.60;87.80
39315;DHT22;28703;44.412;11.918;2023-07-24T12:37:33;31.50;88.10
39315;DHT22;28703;44.412;11.918;2023-07-24T12:39:59;31.50;88.40
39315;DHT22;28703;44.412;11.918;2023-07-24T12:42:25;31.60;88.20
39315;DHT22;28703;44.412;11.918;2023-07-24T12:44:52;31.50;87.90
39315;DHT22;28703;44.412;11.918;2023-07-24T12:47:18;31.60;87.80
39315;DHT22;28703;44.412;11.918;2023-07-24T12:49:44;31.60;87.70
39315;DHT22;28703;44.412;11.918;2023-07-24T12:52:10;31.60;88.30
39315;DHT22;28703;44.412;11.918;2023-07-24T12:54:36;31.60;89.10
39315;DHT22;28703;44.412;11.918;2023-07-24T12:57:02;31.60;89.80
39315;DHT22;28703;44.412;11.918;2023-07-24T12:59:29;31.50;89.90
39315;DHT22;28703;44.412;11.918;2023-07-24T13:01:55;31.50;90.00
39315;DHT22;28703;44.412;11.918;2023-07-24T13:04:22;31.50;90.10
39315;DHT22;28703;44.412;11.918;2023-07-24T13:06:48;31.40;90.20
39315;DHT22;28703;44.412;11.918;2023-07-24T13:09:14;31.40;90.30
39315;DHT22;28703;44.412;11.918;2023-07-24T13:11:40;31.40;90.50
39315;DHT22;28703;44.412;11.918;2023-07-24T13:14:06;31.30;90.50
39315;DHT22;28703;44.412;11.918;2023-07-24T13:16:32;31.30;90.70
39315;DHT22;28703;44.412;11.918;2023-07-24T13:18:58;31.30;90.80
39315;DHT22;28703;44.412;11.918;2023-07-24T13:21:24;31.30;90.90
39315;DHT22;28703;44.412;11.918;2023-07-24T13:23:50;31.30;91.00
39315;DHT22;28703;44.412;11.918;2023-07-24T13:26:17;31.40;91.10
39315;DHT22;28703;44.412;11.918;2023-07-24T13:28:43;31.40;91.00
39315;DHT22;28703;44.412;11.918;2023-07-24T13:31:15;31.50;91.00
39315;DHT22;28703;44.412;11.918;2023-07-24T13:33:42;31.60;91.00
39315;DHT22;28703;44.412;11.918;2023-07-24T13:36:08;31.60;90.90
39315;DHT22;28703;44.412;11.918;2023-07-24T13:38:34;31.60;90.80
39315;DHT22;28703;44.412;11.918;2023-07-24T13:41:00;31.60;90.60
39315;DHT22;28703;44.412;11.918;2023-07-24T13:43:27;31.50;90.70
39315;DHT22;28703;44.412;11.918;2023-07-24T13:45:53;31.50;90.70
39315;DHT22;28703;44.412;11.918;2023-07-24T13:48:19;31.50;90.80
39315;DHT22;28703;44.412;11.918;2023-07-24T13:50:45;31.40;90.80
39315;DHT22;28703;44.412;11.918;2023-07-24T13:53:11;31.40;90.80
39315;DHT22;28703;44.412;11.918;2023-07-24T13:55:38;31.30;91.00
39315;DHT22;28703;44.412;11.918;2023-07-24T13:58:04;31.30;91.40
39315;DHT22;28703;44.412;11.918;2023-07-24T14:00:30;31.30;91.20
39315;DHT22;28703;44.412;11.918;2023-07-24T14:02:56;31.30;91.30
39315;DHT22;28703;44.412;11.918;2023-07-24T14:05:21;31.30;91.30
39315;DHT22;28703;44.412;11.918;2023-07-24T14:07:47;31.30;91.40
39315;DHT22;28703;44.412;11.918;2023-07-24T14:10:13;31.30;91.60
39315;DHT22;28703;44.412;11.918;2023-07-24T14:12:39;31.30;91.60
39315;DHT22;28703;44.412;11.918;2023-07-24T14:15:05;31.30;91.70
39315;DHT22;28703;44.412;11.918;2023-07-24T14:17:31;31.40;91.70
39315;DHT22;28703;44.412;11.918;2023-07-24T14:19:57;31.40;91.60
39315;DHT22;28703;44.412;11.918;2023-07-24T14:22:23;31.50;91.90
39315;DHT22;28703;44.412;11.918;2023-07-24T14:24:48;31.60;91.60
39315;DHT22;28703;44.412;11.918;2023-07-24T14:27:14;31.60;91.50
39315;DHT22;28703;44.412;11.918;2023-07-24T14:29:40;31.60;91.40
39315;DHT22;28703;44.412;11.918;2023-07-24T14:32:06;31.60;91.30
39315;DHT22;28703;44.412;11.918;2023-07-24T14:34:32;31.60;91.20
39315;DHT22;28703;44.412;11.918;2023-07-24T14:36:59;31.60;91.20
39315;DHT22;28703;44.412;11.918;2023-07-24T14:39:25;31.50;91.20
39315;DHT22;28703;44.412;11.918;2023-07-24T14:41:51;31.50;91.30
39315;DHT22;28703;44.412;11.918;2023-07-24T14:44:17;31.50;91.40
39315;DHT22;28703;44.412;11.918;2023-07-24T14:46:43;31.40;91.70
39315;DHT22;28703;44.412;11.918;2023-07-24T14:49:09;31.40;92.10
39315;DHT22;28703;44.412;11.918;2023-07-24T14:51:35;31.40;92.40
39315;DHT22;28703;44.412;11.918;2023-07-24T14:54:01;31.40;92.60
39315;DHT22;28703;44.412;11.918;2023-07-24T14:56:27;31.40;92.70
39315;DHT22;28703;44.412;11.918;2023-07-24T14:58:53;31.50;93.00
39315;DHT22;28703;44.412;11.918;2023-07-24T15:01:18;31.60;93.10
39315;DHT22;28703;44.412;11.918;2023-07-24T15:03:44;31.80;93.00
39315;DHT22;28703;44.412;11.918;2023-07-24T15:06:10;32.00;92.90
39315;DHT22;28703;44.412;11.918;2023-07-24T15:08:36;32.10;92.80
39315;DHT22;28703;44.412;11.918;2023-07-24T15:11:03;32.20;92.70
39315;DHT22;28703;44.412;11.918;2023-07-24T15:13:28;32.40;92.70
39315;DHT22;28703;44.412;11.918;2023-07-24T15:15:54;32.50;92.60